sensor_id;sensor_type;location;lat;lon;timestamp;temperature;humidity
70089;HTU21D;57460;47.134;19.888;2022-07-12T00:01:39;13.03;72.41
70089;HTU21D;57460;47.134;19.888;2022-07-12T00:04:05;13.06;68.97
70089;HTU21D;57460;47.134;19.888;2022-07-12T00:06:31;13.00;72.87
70089;HTU21D;57460;47.134;19.888;2022-07-12T00:09:00;12.88;73.86
70089;HTU21D;57460;47.134;19.888;2022-07-12T00:11:25;12.82;74.13
70089;HTU21D;57460;47.134;19.888;2022-07-12T00:13:51;12.84;72.44
70089;HTU21D;57460;47.134;19.888;2022-07-12T00:16:17;12.84;73.83
70089;HTU21D;57460;47.134;19.888;2022-07-12T00:18:42;12.94;67.54
70089;HTU21D;57460;47.134;19.888;2022-07-12T00:21:08;13.06;69.01
70089;HTU21D;57460;47.134;19.888;2022-07-12T00:23:34;13.19;67.00
70089;HTU21D;57460;47.134;19.888;2022-07-12T00:26:00;13.30;64.93
70089;HTU21D;57460;47.134;19.888;2022-07-12T00:28:30;13.36;65.61
70089;HTU21D;57460;47.134;19.888;2022-07-12T00:30:57;13.43;64.82
70089;HTU21D;57460;47.134;19.888;2022-07-12T00:33:23;13.48;63.81
70089;HTU21D;57460;47.134;19.888;2022-07-12T00:35:48;13.48;67.54
70089;HTU21D;57460;47.134;19.888;2022-07-12T00:38:14;13.46;64.27
70089;HTU21D;57460;47.134;19.888;2022-07-12T00:40:40;13.46;64.42
70089;HTU21D;57460;47.134;19.888;2022-07-12T00:43:05;13.45;68.57
70089;HTU21D;57460;47.134;19.888;2022-07-12T00:45:31;13.20;71.12
70089;HTU21D;57460;47.134;19.888;2022-07-12T00:47:57;12.92;72.22
70089;HTU21D;57460;47.134;19.888;2022-07-12T00:50:23;12.82;72.35
70089;HTU21D;57460;47.134;19.888;2022-07-12T00:52:51;12.76;72.98
70089;HTU21D;57460;47.134;19.888;2022-07-12T00:55:19;12.69;73.77
70089;HTU21D;57460;47.134;19.888;2022-07-12T00:57:46;12.71;70.18
70089;HTU21D;57460;47.134;19.888;2022-07-12T01:00:22;12.67;73.18
70089;HTU21D;57460;47.134;19.888;2022-07-12T01:02:49;12.59;73.05
70089;HTU21D;57460;47.134;19.888;2022-07-12T01:05:14;12.55;73.33
70089;HTU21D;57460;47.134;19.888;2022-07-12T01:07:40;12.48;74.36
70089;HTU21D;57460;47.134;19.888;2022-07-12T01:10:07;12.48;72.60
70089;HTU21D;57460;47.134;19.888;2022-07-12T01:12:34;12.48;73.41
70089;HTU21D;57460;47.134;19.888;2022-07-12T01:15:10;12.48;72.47
70089;HTU21D;57460;47.134;19.888;2022-07-12T01:17:36;12.51;74.50
70089;HTU21D;57460;47.134;19.888;2022-07-12T01:20:05;12.58;74.14
70089;HTU21D;57460;47.134;19.888;2022-07-12T01:22:36;12.69;72.17
70089;HTU21D;57460;47.134;19.888;2022-07-12T01:25:06;12.71;72.85
70089;HTU21D;57460;47.134;19.888;2022-07-12T01:27:32;12.64;73.23
70089;HTU21D;57460;47.134;19.888;2022-07-12T01:30:01;12.51;74.01
70089;HTU21D;57460;47.134;19.888;2022-07-12T01:32:27;12.36;74.37
70089;HTU21D;57460;47.134;19.888;2022-07-12T01:34:58;12.31;72.36
70089;HTU21D;57460;47.134;19.888;2022-07-12T01:37:28;12.26;74.90
70089;HTU21D;57460;47.134;19.888;2022-07-12T01:39:56;12.31;74.83
70089;HTU21D;57460;47.134;19.888;2022-07-12T01:42:24;12.41;75.11
70089;HTU21D;57460;47.134;19.888;2022-07-12T01:44:50;12.60;72.51
70089;HTU21D;57460;47.134;19.888;2022-07-12T01:47:21;12.66;73.90
70089;HTU21D;57460;47.134;19.888;2022-07-12T01:49:47;12.78;73.15
70089;HTU21D;57460;47.134;19.888;2022-07-12T01:52:23;12.80;73.30
70089;HTU21D;57460;47.134;19.888;2022-07-12T01:54:50;12.85;71.84
70089;HTU21D;57460;47.134;19.888;2022-07-12T01:57:17;12.88;72.95
70089;HTU21D;57460;47.134;19.888;2022-07-12T01:59:43;12.90;72.83
70089;HTU21D;57460;47.134;19.888;2022-07-12T02:02:16;12.88;72.80
70089;HTU21D;57460;47.134;19.888;2022-07-12T02:04:43;12.90;72.70
70089;HTU21D;57460;47.134;19.888;2022-07-12T02:07:12;12.86;72.80
70089;HTU21D;57460;47.134;19.888;2022-07-12T02:09:38;12.88;72.67
70089;HTU21D;57460;47.134;19.888;2022-07-12T02:12:04;12.99;72.35
70089;HTU21D;57460;47.134;19.888;2022-07-12T02:14:30;13.10;70.96
70089;HTU21D;57460;47.134;19.888;2022-07-12T02:16:56;13.17;71.16
70089;HTU21D;57460;47.134;19.888;2022-07-12T02:19:21;13.09;71.26
70089;HTU21D;57460;47.134;19.888;2022-07-12T02:21:47;13.09;70.88
70089;HTU21D;57460;47.134;19.888;2022-07-12T02:24:14;13.02;71.50
70089;HTU21D;57460;47.134;19.888;2022-07-12T02:26:42;13.08;69.91
70089;HTU21D;57460;47.134;19.888;2022-07-12T02:29:09;13.08;70.74
70089;HTU21D;57460;47.134;19.888;2022-07-12T02:31:35;13.07;70.32
70089;HTU21D;57460;47.134;19.888;2022-07-12T02:34:01;13.08;69.95
70089;HTU21D;57460;47.134;19.888;2022-07-12T02:36:27;13.09;69.96
70089;HTU21D;57460;47.134;19.888;2022-07-12T02:38:53;13.07;69.94
70089;HTU21D;57460;47.134;19.888;2022-07-12T02:41:19;12.97;69.94
70089;HTU21D;57460;47.134;19.888;2022-07-12T02:43:44;12.94;70.51
70089;HTU21D;57460;47.134;19.888;2022-07-12T02:46:12;12.91;70.76
70089;HTU21D;57460;47.134;19.888;2022-07-12T02:48:39;12.94;70.02
70089;HTU21D;57460;47.134;19.888;2022-07-12T02:51:06;12.94;69.99
70089;HTU21D;57460;47.134;19.888;2022-07-12T02:53:34;13.00;69.89
70089;HTU21D;57460;47.134;19.888;2022-07-12T02:56:00;13.02;69.88
70089;HTU21D;57460;47.134;19.888;2022-07-12T02:58:26;13.06;68.37
70089;HTU21D;57460;47.134;19.888;2022-07-12T03:00:52;13.08;69.14
70089;HTU21D;57460;47.134;19.888;2022-07-12T03:03:17;13.10;68.78
70089;HTU21D;57460;47.134;19.888;2022-07-12T03:05:43;13.23;67.58
70089;HTU21D;57460;47.134;19.888;2022-07-12T03:08:11;13.23;67.42
70089;HTU21D;57460;47.134;19.888;2022-07-12T03:10:38;13.30;68.88
70089;HTU21D;57460;47.134;19.888;2022-07-12T03:13:04;13.32;68.36
70089;HTU21D;57460;47.134;19.888;2022-07-12T03:15:31;13.33;68.45
70089;HTU21D;57460;47.134;19.888;2022-07-12T03:17:59;13.24;68.12
70089;HTU21D;57460;47.134;19.888;2022-07-12T03:20:25;13.18;68.25
70089;HTU21D;57460;47.134;19.888;2022-07-12T03:22:51;13.20;67.61
70089;HTU21D;57460;47.134;19.888;2022-07-12T03:25:21;13.19;68.05
70089;HTU21D;57460;47.134;19.888;2022-07-12T03:27:47;13.25;67.54
70089;HTU21D;57460;47.134;19.888;2022-07-12T03:30:13;13.34;66.73
70089;HTU21D;57460;47.134;19.888;2022-07-12T03:32:39;13.40;66.69
70089;HTU21D;57460;47.134;19.888;2022-07-12T03:35:06;13.46;67.16
70089;HTU21D;57460;47.134;19.888;2022-07-12T03:37:52;13.55;65.87
70089;HTU21D;57460;47.134;19.888;2022-07-12T03:40:19;13.54;66.77
70089;HTU21D;57460;47.134;19.888;2022-07-12T03:42:46;13.65;65.26
70089;HTU21D;57460;47.134;19.888;2022-07-12T03:45:13;13.68;65.94
70089;HTU21D;57460;47.134;19.888;2022-07-12T03:47:40;13.75;65.38
70089;HTU21D;57460;47.134;19.888;2022-07-12T03:50:12;13.88;65.11
70089;HTU21D;57460;47.134;19.888;2022-07-12T03:52:40;13.88;64.95
70089;HTU21D;57460;47.134;19.888;2022-07-12T03:55:06;13.93;65.38
70089;HTU21D;57460;47.134;19.888;2022-07-12T03:57:33;14.08;64.11
70089;HTU21D;57460;47.134;19.888;2022-07-12T03:59:59;14.11;63.98
70089;HTU21D;57460;47.134;19.888;2022-07-12T04:02:24;14.21;63.64
70089;HTU21D;57460;47.134;19.888;2022-07-12T04:04:51;14.23;65.14
70089;HTU21D;57460;47.134;19.888;2022-07-12T04:07:18;14.23;64.18
70089;HTU21D;57460;47.134;19.888;2022-07-12T04:09:44;14.32;65.05
70089;HTU21D;57460;47.134;19.888;2022-07-12T04:12:09;14.43;63.18
70089;HTU21D;57460;47.134;19.888;2022-07-12T04:14:36;14.51;63.29
70089;HTU21D;57460;47.134;19.888;2022-07-12T04:17:02;14.54;63.42
70089;HTU21D;57460;47.134;19.888;2022-07-12T04:19:27;14.60;63.91
70089;HTU21D;57460;47.134;19.888;2022-07-12T04:21:57;14.66;63.49
70089;HTU21D;57460;47.134;19.888;2022-07-12T04:24:23;14.77;62.92
70089;HTU21D;57460;47.134;19.888;2022-07-12T04:26:49;14.82;62.90
70089;HTU21D;57460;47.134;19.888;2022-07-12T04:29:19;14.87;62.54
70089;HTU21D;57460;47.134;19.888;2022-07-12T04:31:45;15.03;61.96
70089;HTU21D;57460;47.134;19.888;2022-07-12T04:34:11;15.18;61.73
70089;HTU21D;57460;47.134;19.888;2022-07-12T04:36:37;15.19;62.26
70089;HTU21D;57460;47.134;19.888;2022-07-12T04:39:03;15.31;61.56
70089;HTU21D;57460;47.134;19.888;2022-07-12T04:41:29;15.34;63.09
70089;HTU21D;57460;47.134;19.888;2022-07-12T04:43:55;15.57;61.05
70089;HTU21D;57460;47.134;19.888;2022-07-12T04:46:21;15.67;60.71
70089;HTU21D;57460;47.134;19.888;2022-07-12T04:48:47;15.87;60.10
70089;HTU21D;57460;47.134;19.888;2022-07-12T04:51:12;15.85;60.35
70089;HTU21D;57460;47.134;19.888;2022-07-12T04:53:40;15.92;60.09
70089;HTU21D;57460;47.134;19.888;2022-07-12T04:56:06;16.02;59.97
70089;HTU21D;57460;47.134;19.888;2022-07-12T04:58:32;16.17;59.62
70089;HTU21D;57460;47.134;19.888;2022-07-12T05:00:57;16.27;59.51
70089;HTU21D;57460;47.134;19.888;2022-07-12T05:03:23;16.45;58.99
70089;HTU21D;57460;47.134;19.888;2022-07-12T05:05:54;16.49;59.33
70089;HTU21D;57460;47.134;19.888;2022-07-12T05:08:20;16.60;58.46
70089;HTU21D;57460;47.134;19.888;2022-07-12T05:10:46;16.65;57.90
70089;HTU21D;57460;47.134;19.888;2022-07-12T05:13:12;16.82;58.54
70089;HTU21D;57460;47.134;19.888;2022-07-12T05:15:38;17.05;58.03
70089;HTU21D;57460;47.134;19.888;2022-07-12T05:18:03;17.19;57.90
70089;HTU21D;57460;47.134;19.888;2022-07-12T05:20:30;17.25;57.35
70089;HTU21D;57460;47.134;19.888;2022-07-12T05:22:55;17.36;57.37
70089;HTU21D;57460;47.134;19.888;2022-07-12T05:25:21;17.55;56.69
70089;HTU21D;57460;47.134;19.888;2022-07-12T05:27:47;17.65;56.56
70089;HTU21D;57460;47.134;19.888;2022-07-12T05:30:13;17.75;56.61
70089;HTU21D;57460;47.134;19.888;2022-07-12T05:32:38;17.92;56.39
70089;HTU21D;57460;47.134;19.888;2022-07-12T05:35:05;18.05;55.51
70089;HTU21D;57460;47.134;19.888;2022-07-12T05:37:30;18.27;55.45
70089;HTU21D;57460;47.134;19.888;2022-07-12T05:39:56;18.52;54.59
70089;HTU21D;57460;47.134;19.888;2022-07-12T05:42:22;18.68;53.56
70089;HTU21D;57460;47.134;19.888;2022-07-12T05:44:48;18.93;53.21
70089;HTU21D;57460;47.134;19.888;2022-07-12T05:47:13;18.95;52.51
70089;HTU21D;57460;47.134;19.888;2022-07-12T05:49:40;19.01;52.35
70089;HTU21D;57460;47.134;19.888;2022-07-12T05:52:06;19.18;52.85
70089;HTU21D;57460;47.134;19.888;2022-07-12T05:54:50;19.36;52.70
70089;HTU21D;57460;47.134;19.888;2022-07-12T05:57:17;19.56;51.79
70089;HTU21D;57460;47.134;19.888;2022-07-12T05:59:43;19.62;51.77
70089;HTU21D;57460;47.134;19.888;2022-07-12T06:02:09;19.73;51.94
70089;HTU21D;57460;47.134;19.888;2022-07-12T06:04:35;19.89;49.76
70089;HTU21D;57460;47.134;19.888;2022-07-12T06:07:02;20.07;49.37
70089;HTU21D;57460;47.134;19.888;2022-07-12T06:09:28;20.13;51.16
70089;HTU21D;57460;47.134;19.888;2022-07-12T06:11:56;20.21;50.53
70089;HTU21D;57460;47.134;19.888;2022-07-12T06:14:22;20.32;49.43
70089;HTU21D;57460;47.134;19.888;2022-07-12T06:16:48;20.49;50.82
70089;HTU21D;57460;47.134;19.888;2022-07-12T06:19:17;20.64;48.38
70089;HTU21D;57460;47.134;19.888;2022-07-12T06:21:54;20.72;47.96
70089;HTU21D;57460;47.134;19.888;2022-07-12T06:24:29;20.85;47.32
70089;HTU21D;57460;47.134;19.888;2022-07-12T06:26:58;20.89;48.99
70089;HTU21D;57460;47.134;19.888;2022-07-12T06:29:27;21.01;49.09
70089;HTU21D;57460;47.134;19.888;2022-07-12T06:31:58;21.25;48.05
70089;HTU21D;57460;47.134;19.888;2022-07-12T06:34:24;21.45;47.26
70089;HTU21D;57460;47.134;19.888;2022-07-12T06:37:02;21.62;46.88
70089;HTU21D;57460;47.134;19.888;2022-07-12T06:39:28;21.69;46.54
70089;HTU21D;57460;47.134;19.888;2022-07-12T06:41:54;21.73;46.11
70089;HTU21D;57460;47.134;19.888;2022-07-12T06:44:24;21.98;45.35
70089;HTU21D;57460;47.134;19.888;2022-07-12T06:46:50;21.97;45.07
70089;HTU21D;57460;47.134;19.888;2022-07-12T06:49:15;22.03;45.64
70089;HTU21D;57460;47.134;19.888;2022-07-12T06:51:41;22.14;45.26
70089;HTU21D;57460;47.134;19.888;2022-07-12T06:54:07;22.20;44.82
70089;HTU21D;57460;47.134;19.888;2022-07-12T06:56:33;22.20;45.21
70089;HTU21D;57460;47.134;19.888;2022-07-12T06:59:02;22.38;44.25
70089;HTU21D;57460;47.134;19.888;2022-07-12T07:01:28;22.32;44.06
70089;HTU21D;57460;47.134;19.888;2022-07-12T07:03:54;22.40;44.64
70089;HTU21D;57460;47.134;19.888;2022-07-12T07:06:19;22.58;43.52
70089;HTU21D;57460;47.134;19.888;2022-07-12T07:08:48;22.80;43.64
70089;HTU21D;57460;47.134;19.888;2022-07-12T07:11:15;22.82;41.76
70089;HTU21D;57460;47.134;19.888;2022-07-12T07:13:52;22.95;42.77
70089;HTU21D;57460;47.134;19.888;2022-07-12T07:16:19;22.91;41.83
70089;HTU21D;57460;47.134;19.888;2022-07-12T07:18:47;23.06;42.13
70089;HTU21D;57460;47.134;19.888;2022-07-12T07:21:14;23.21;43.06
70089;HTU21D;57460;47.134;19.888;2022-07-12T07:23:39;23.18;41.19
70089;HTU21D;57460;47.134;19.888;2022-07-12T07:26:05;23.30;40.39
70089;HTU21D;57460;47.134;19.888;2022-07-12T07:28:35;23.43;42.51
70089;HTU21D;57460;47.134;19.888;2022-07-12T07:31:23;23.60;41.52
70089;HTU21D;57460;47.134;19.888;2022-07-12T07:33:49;23.87;41.25
70089;HTU21D;57460;47.134;19.888;2022-07-12T07:36:19;23.91;41.24
70089;HTU21D;57460;47.134;19.888;2022-07-12T07:38:51;23.97;40.73
70089;HTU21D;57460;47.134;19.888;2022-07-12T07:41:19;24.02;40.23
70089;HTU21D;57460;47.134;19.888;2022-07-12T07:43:45;24.13;40.55
70089;HTU21D;57460;47.134;19.888;2022-07-12T07:46:11;24.31;39.56
70089;HTU21D;57460;47.134;19.888;2022-07-12T07:48:38;24.50;39.17
70089;HTU21D;57460;47.134;19.888;2022-07-12T07:51:04;24.41;38.40
70089;HTU21D;57460;47.134;19.888;2022-07-12T07:53:30;24.60;38.11
70089;HTU21D;57460;47.134;19.888;2022-07-12T07:56:00;24.56;37.37
70089;HTU21D;57460;47.134;19.888;2022-07-12T07:58:30;24.86;38.51
70089;HTU21D;57460;47.134;19.888;2022-07-12T08:01:00;24.78;37.16
70089;HTU21D;57460;47.134;19.888;2022-07-12T08:03:26;24.69;35.89
70089;HTU21D;57460;47.134;19.888;2022-07-12T08:05:52;24.93;36.53
70089;HTU21D;57460;47.134;19.888;2022-07-12T08:08:18;24.46;33.32
70089;HTU21D;57460;47.134;19.888;2022-07-12T08:10:44;24.60;36.37
70089;HTU21D;57460;47.134;19.888;2022-07-12T08:13:11;24.53;34.96
70089;HTU21D;57460;47.134;19.888;2022-07-12T08:15:36;24.86;36.00
70089;HTU21D;57460;47.134;19.888;2022-07-12T08:18:02;24.99;35.37
70089;HTU21D;57460;47.134;19.888;2022-07-12T08:20:29;25.04;36.18
70089;HTU21D;57460;47.134;19.888;2022-07-12T08:22:57;25.19;34.28
70089;HTU21D;57460;47.134;19.888;2022-07-12T08:25:29;25.18;35.16
70089;HTU21D;57460;47.134;19.888;2022-07-12T08:27:55;25.29;33.86
70089;HTU21D;57460;47.134;19.888;2022-07-12T08:30:21;25.47;34.50
70089;HTU21D;57460;47.134;19.888;2022-07-12T08:32:47;25.52;34.24
70089;HTU21D;57460;47.134;19.888;2022-07-12T08:35:13;25.81;33.64
70089;HTU21D;57460;47.134;19.888;2022-07-12T08:37:42;25.94;33.34
70089;HTU21D;57460;47.134;19.888;2022-07-12T08:40:09;25.96;33.24
70089;HTU21D;57460;47.134;19.888;2022-07-12T08:42:41;26.17;33.04
70089;HTU21D;57460;47.134;19.888;2022-07-12T08:45:08;26.17;32.10
70089;HTU21D;57460;47.134;19.888;2022-07-12T08:47:33;26.46;33.10
70089;HTU21D;57460;47.134;19.888;2022-07-12T08:50:15;26.60;31.47
70089;HTU21D;57460;47.134;19.888;2022-07-12T08:52:49;26.70;32.68
70089;HTU21D;57460;47.134;19.888;2022-07-12T08:55:31;26.77;32.89
70089;HTU21D;57460;47.134;19.888;2022-07-12T08:58:00;26.80;32.80
70089;HTU21D;57460;47.134;19.888;2022-07-12T09:00:28;26.87;32.33
70089;HTU21D;57460;47.134;19.888;2022-07-12T09:02:55;26.87;31.41
70089;HTU21D;57460;47.134;19.888;2022-07-12T09:05:31;26.57;30.68
70089;HTU21D;57460;47.134;19.888;2022-07-12T09:08:09;26.58;31.86
70089;HTU21D;57460;47.134;19.888;2022-07-12T09:10:52;26.56;31.04
70089;HTU21D;57460;47.134;19.888;2022-07-12T09:13:18;26.23;30.58
70089;HTU21D;57460;47.134;19.888;2022-07-12T09:15:44;26.11;32.54
70089;HTU21D;57460;47.134;19.888;2022-07-12T09:18:13;26.15;30.54
70089;HTU21D;57460;47.134;19.888;2022-07-12T09:20:51;26.49;32.13
70089;HTU21D;57460;47.134;19.888;2022-07-12T09:23:19;26.75;31.94
70089;HTU21D;57460;47.134;19.888;2022-07-12T09:25:46;26.70;30.48
70089;HTU21D;57460;47.134;19.888;2022-07-12T09:28:12;26.76;31.41
70089;HTU21D;57460;47.134;19.888;2022-07-12T09:30:47;26.85;31.10
70089;HTU21D;57460;47.134;19.888;2022-07-12T09:33:17;26.78;31.25
70089;HTU21D;57460;47.134;19.888;2022-07-12T09:36:02;26.91;31.28
70089;HTU21D;57460;47.134;19.888;2022-07-12T09:38:57;27.06;30.49
70089;HTU21D;57460;47.134;19.888;2022-07-12T09:41:27;26.85;30.25
70089;HTU21D;57460;47.134;19.888;2022-07-12T09:43:54;26.48;30.00
70089;HTU21D;57460;47.134;19.888;2022-07-12T09:46:21;26.28;31.44
70089;HTU21D;57460;47.134;19.888;2022-07-12T09:48:47;26.18;31.86
70089;HTU21D;57460;47.134;19.888;2022-07-12T09:51:17;26.40;32.45
70089;HTU21D;57460;47.134;19.888;2022-07-12T09:53:48;26.60;28.52
70089;HTU21D;57460;47.134;19.888;2022-07-12T09:56:18;26.66;29.21
70089;HTU21D;57460;47.134;19.888;2022-07-12T09:58:56;26.45;30.20
70089;HTU21D;57460;47.134;19.888;2022-07-12T10:01:23;26.40;30.09
70089;HTU21D;57460;47.134;19.888;2022-07-12T10:04:09;26.35;30.98
70089;HTU21D;57460;47.134;19.888;2022-07-12T10:06:36;26.47;30.80
70089;HTU21D;57460;47.134;19.888;2022-07-12T10:09:03;26.95;30.31
70089;HTU21D;57460;47.134;19.888;2022-07-12T10:11:31;27.31;29.18
70089;HTU21D;57460;47.134;19.888;2022-07-12T10:13:58;27.61;29.21
70089;HTU21D;57460;47.134;19.888;2022-07-12T10:16:26;27.66;27.04
70089;HTU21D;57460;47.134;19.888;2022-07-12T10:22:00;28.20;27.39
70089;HTU21D;57460;47.134;19.888;2022-07-12T10:29:50;28.78;26.56
70089;HTU21D;57460;47.134;19.888;2022-07-12T10:32:26;28.77;25.96
70089;HTU21D;57460;47.134;19.888;2022-07-12T10:35:01;28.72;25.80
70089;HTU21D;57460;47.134;19.888;2022-07-12T10:37:29;28.77;25.58
70089;HTU21D;57460;47.134;19.888;2022-07-12T10:40:17;28.82;26.10
70089;HTU21D;57460;47.134;19.888;2022-07-12T10:45:41;28.88;25.45
70089;HTU21D;57460;47.134;19.888;2022-07-12T10:58:50;28.12;25.91
70089;HTU21D;57460;47.134;19.888;2022-07-12T11:01:23;27.69;26.92
70089;HTU21D;57460;47.134;19.888;2022-07-12T11:06:26;27.63;25.01
70089;HTU21D;57460;47.134;19.888;2022-07-12T11:11:28;28.38;25.80
70089;HTU21D;57460;47.134;19.888;2022-07-12T11:13:56;28.37;24.82
70089;HTU21D;57460;47.134;19.888;2022-07-12T11:16:23;28.18;25.43
70089;HTU21D;57460;47.134;19.888;2022-07-12T11:18:49;27.96;24.40
70089;HTU21D;57460;47.134;19.888;2022-07-12T11:21:15;27.71;25.22
70089;HTU21D;57460;47.134;19.888;2022-07-12T11:23:42;27.44;26.39
70089;HTU21D;57460;47.134;19.888;2022-07-12T11:26:10;27.35;26.78
70089;HTU21D;57460;47.134;19.888;2022-07-12T11:28:37;27.35;26.59
70089;HTU21D;57460;47.134;19.888;2022-07-12T11:31:04;27.30;26.40
70089;HTU21D;57460;47.134;19.888;2022-07-12T11:33:35;27.21;26.88
70089;HTU21D;57460;47.134;19.888;2022-07-12T11:36:07;27.42;27.91
70089;HTU21D;57460;47.134;19.888;2022-07-12T11:38:41;27.93;27.20
70089;HTU21D;57460;47.134;19.888;2022-07-12T11:41:08;28.18;24.42
70089;HTU21D;57460;47.134;19.888;2022-07-12T11:43:36;28.29;24.63
70089;HTU21D;57460;47.134;19.888;2022-07-12T11:46:05;28.41;25.25
70089;HTU21D;57460;47.134;19.888;2022-07-12T11:48:36;28.32;22.53
70089;HTU21D;57460;47.134;19.888;2022-07-12T11:51:04;28.12;24.79
70089;HTU21D;57460;47.134;19.888;2022-07-12T11:53:32;27.99;25.27
70089;HTU21D;57460;47.134;19.888;2022-07-12T11:56:01;27.81;25.39
70089;HTU21D;57460;47.134;19.888;2022-07-12T11:58:28;27.52;26.79
70089;HTU21D;57460;47.134;19.888;2022-07-12T12:00:55;27.65;26.90
70089;HTU21D;57460;47.134;19.888;2022-07-12T12:03:23;28.17;25.81
70089;HTU21D;57460;47.134;19.888;2022-07-12T12:05:54;28.46;25.12
70089;HTU21D;57460;47.134;19.888;2022-07-12T12:08:21;28.83;25.15
70089;HTU21D;57460;47.134;19.888;2022-07-12T12:10:58;29.07;23.35
70089;HTU21D;57460;47.134;19.888;2022-07-12T12:13:26;29.36;24.08
70089;HTU21D;57460;47.134;19.888;2022-07-12T12:16:00;29.72;24.36
70089;HTU21D;57460;47.134;19.888;2022-07-12T12:18:45;30.08;23.86
70089;HTU21D;57460;47.134;19.888;2022-07-12T12:21:12;29.96;23.82
70089;HTU21D;57460;47.134;19.888;2022-07-12T12:23:41;30.03;23.66
70089;HTU21D;57460;47.134;19.888;2022-07-12T12:26:17;30.17;22.76
70089;HTU21D;57460;47.134;19.888;2022-07-12T12:28:50;30.12;22.49
70089;HTU21D;57460;47.134;19.888;2022-07-12T12:31:20;29.90;22.82
70089;HTU21D;57460;47.134;19.888;2022-07-12T12:33:52;29.54;23.44
70089;HTU21D;57460;47.134;19.888;2022-07-12T12:36:25;29.33;23.33
70089;HTU21D;57460;47.134;19.888;2022-07-12T12:38:59;28.93;24.05
70089;HTU21D;57460;47.134;19.888;2022-07-12T12:41:27;28.58;27.13
70089;HTU21D;57460;47.134;19.888;2022-07-12T12:46:55;25.35;40.47
70089;HTU21D;57460;47.134;19.888;2022-07-12T12:49:59;23.11;44.91
70089;HTU21D;57460;47.134;19.888;2022-07-12T12:52:28;22.46;43.77
70089;HTU21D;57460;47.134;19.888;2022-07-12T12:54:55;21.77;49.02
70089;HTU21D;57460;47.134;19.888;2022-07-12T12:57:22;21.38;47.99
70089;HTU21D;57460;47.134;19.888;2022-07-12T12:59:49;21.23;47.34
70089;HTU21D;57460;47.134;19.888;2022-07-12T13:02:15;21.17;56.47
70089;HTU21D;57460;47.134;19.888;2022-07-12T13:04:42;21.18;55.73
70089;HTU21D;57460;47.134;19.888;2022-07-12T13:07:07;21.60;55.13
70089;HTU21D;57460;47.134;19.888;2022-07-12T13:09:33;22.11;56.01
70089;HTU21D;57460;47.134;19.888;2022-07-12T13:11:59;22.77;58.25
70089;HTU21D;57460;47.134;19.888;2022-07-12T13:14:26;23.42;46.99
70089;HTU21D;57460;47.134;19.888;2022-07-12T13:16:52;23.84;47.61
70089;HTU21D;57460;47.134;19.888;2022-07-12T13:19:18;24.14;51.13
70089;HTU21D;57460;47.134;19.888;2022-07-12T13:21:45;24.53;44.30
70089;HTU21D;57460;47.134;19.888;2022-07-12T13:24:11;24.87;43.25
70089;HTU21D;57460;47.134;19.888;2022-07-12T13:26:37;25.14;40.57
70089;HTU21D;57460;47.134;19.888;2022-07-12T13:29:03;25.51;41.57
70089;HTU21D;57460;47.134;19.888;2022-07-12T13:31:29;25.67;36.69
70089;HTU21D;57460;47.134;19.888;2022-07-12T13:33:55;25.91;38.83
70089;HTU21D;57460;47.134;19.888;2022-07-12T13:36:21;26.17;38.20
70089;HTU21D;57460;47.134;19.888;2022-07-12T13:38:48;26.51;34.83
70089;HTU21D;57460;47.134;19.888;2022-07-12T13:41:14;26.77;35.85
70089;HTU21D;57460;47.134;19.888;2022-07-12T13:43:40;26.75;32.46
70089;HTU21D;57460;47.134;19.888;2022-07-12T13:46:08;26.90;34.44
70089;HTU21D;57460;47.134;19.888;2022-07-12T13:48:34;27.04;33.20
70089;HTU21D;57460;47.134;19.888;2022-07-12T13:51:00;27.26;33.11
70089;HTU21D;57460;47.134;19.888;2022-07-12T13:53:26;27.47;33.22
70089;HTU21D;57460;47.134;19.888;2022-07-12T13:55:52;27.58;29.52
70089;HTU21D;57460;47.134;19.888;2022-07-12T13:58:18;27.73;31.54
70089;HTU21D;57460;47.134;19.888;2022-07-12T14:00:44;27.83;29.49
70089;HTU21D;57460;47.134;19.888;2022-07-12T14:03:10;27.80;31.94
70089;HTU21D;57460;47.134;19.888;2022-07-12T14:05:36;27.84;30.73
70089;HTU21D;57460;47.134;19.888;2022-07-12T14:08:03;27.98;32.15
70089;HTU21D;57460;47.134;19.888;2022-07-12T14:10:29;28.11;30.79
70089;HTU21D;57460;47.134;19.888;2022-07-12T14:12:55;28.04;31.36
70089;HTU21D;57460;47.134;19.888;2022-07-12T14:15:20;28.00;29.74
70089;HTU21D;57460;47.134;19.888;2022-07-12T14:18:03;27.75;26.72
70089;HTU21D;57460;47.134;19.888;2022-07-12T14:20:30;27.80;29.42
70089;HTU21D;57460;47.134;19.888;2022-07-12T14:22:56;28.04;27.04
70089;HTU21D;57460;47.134;19.888;2022-07-12T14:25:21;28.14;26.60
70089;HTU21D;57460;47.134;19.888;2022-07-12T14:27:47;28.39;28.48
70089;HTU21D;57460;47.134;19.888;2022-07-12T14:30:16;28.64;28.87
70089;HTU21D;57460;47.134;19.888;2022-07-12T14:32:42;28.89;28.20
70089;HTU21D;57460;47.134;19.888;2022-07-12T14:35:09;29.12;28.14
70089;HTU21D;57460;47.134;19.888;2022-07-12T14:37:36;29.32;26.85
70089;HTU21D;57460;47.134;19.888;2022-07-12T14:40:04;29.41;27.51
70089;HTU21D;57460;47.134;19.888;2022-07-12T14:42:30;29.31;25.30
70089;HTU21D;57460;47.134;19.888;2022-07-12T14:44:56;29.52;26.68
70089;HTU21D;57460;47.134;19.888;2022-07-12T14:47:22;29.32;24.72
70089;HTU21D;57460;47.134;19.888;2022-07-12T14:49:49;29.33;23.47
70089;HTU21D;57460;47.134;19.888;2022-07-12T14:52:15;29.60;25.51
70089;HTU21D;57460;47.134;19.888;2022-07-12T14:54:42;29.32;24.70
70089;HTU21D;57460;47.134;19.888;2022-07-12T14:57:07;29.47;25.67
70089;HTU21D;57460;47.134;19.888;2022-07-12T14:59:33;29.59;25.47
70089;HTU21D;57460;47.134;19.888;2022-07-12T15:01:59;29.56;25.05
70089;HTU21D;57460;47.134;19.888;2022-07-12T15:04:26;29.36;24.42
70089;HTU21D;57460;47.134;19.888;2022-07-12T15:06:51;28.76;22.48
70089;HTU21D;57460;47.134;19.888;2022-07-12T15:09:17;28.28;24.07
70089;HTU21D;57460;47.134;19.888;2022-07-12T15:11:43;28.11;25.13
70089;HTU21D;57460;47.134;19.888;2022-07-12T15:14:09;27.84;25.78
70089;HTU21D;57460;47.134;19.888;2022-07-12T15:16:34;27.66;26.19
70089;HTU21D;57460;47.134;19.888;2022-07-12T15:19:00;27.43;25.68
70089;HTU21D;57460;47.134;19.888;2022-07-12T15:21:26;27.34;25.64
70089;HTU21D;57460;47.134;19.888;2022-07-12T15:23:51;27.19;27.02
70089;HTU21D;57460;47.134;19.888;2022-07-12T15:26:17;27.12;27.18
70089;HTU21D;57460;47.134;19.888;2022-07-12T15:28:56;27.00;26.93
70089;HTU21D;57460;47.134;19.888;2022-07-12T15:31:22;26.86;26.68
70089;HTU21D;57460;47.134;19.888;2022-07-12T15:33:49;26.77;27.29
70089;HTU21D;57460;47.134;19.888;2022-07-12T15:36:15;26.66;27.31
70089;HTU21D;57460;47.134;19.888;2022-07-12T15:38:42;26.51;28.22